EXS7GT LTBS-EGCC
Flight info
| Callsign | EXS7GT |
|---|---|
| Flight time | N/A |
| Altitude | 36000 |
| Route | KEKIK N127 UFQUM UN127 LMO DCT EVIVI DCT EDIKA DCT BAVGA DCT OKANA DCT OKLOP DCT TISAK DCT TONDO DCT BEGLA DCT STO DCT DITIS DCT OKG DCT VELIS DCT SWALM DCT TIVUN DCT DIBIR DCT GALSO Q63 ERING L179 LAM UN57 WELIN T420 ELVOS |
| Aircraft | B738/M-SDE2E3FGHIRWXY/LB1 |
Departure
| Time | 2026-04-22 13:18 |
|---|---|
| Airport | Dalaman International Airport (LTBS) |
Arrival
| Time | N/A |
|---|---|
| Airport | Manchester Airport (EGCC) |
| Time | Latitude | Longitude | Altitude | Speed | Heading |
|---|---|---|---|---|---|
| 2026-04-22 12:21 | 36.72185 | 28.79033 | 11 ft | 0 kts | 284° |
| 2026-04-22 13:10 | 36.72182 | 28.79047 | 11 ft | 3 kts | 284° |
| 2026-04-22 13:10 | 36.72177 | 28.79069 | 13 ft | 2 kts | 284° |
| 2026-04-22 13:10 | 36.72172 | 28.79089 | 14 ft | 3 kts | 310° |
| 2026-04-22 13:10 | 36.72158 | 28.79101 | 14 ft | 3 kts | 359° |
| 2026-04-22 13:11 | 36.72140 | 28.79098 | 14 ft | 2 kts | 14° |
| 2026-04-22 13:11 | 36.72134 | 28.79096 | 14 ft | 0 kts | 14° |
| 2026-04-22 13:14 | 36.72140 | 28.79098 | 14 ft | 3 kts | 14° |
| 2026-04-22 13:14 | 36.72179 | 28.79111 | 12 ft | 9 kts | 14° |
| 2026-04-22 13:14 | 36.72255 | 28.79138 | 11 ft | 14 kts | 17° |
| 2026-04-22 13:14 | 36.72300 | 28.79204 | 11 ft | 11 kts | 97° |
| 2026-04-22 13:15 | 36.72282 | 28.79299 | 12 ft | 11 kts | 104° |
| 2026-04-22 13:15 | 36.72305 | 28.79377 | 11 ft | 11 kts | 23° |
| 2026-04-22 13:15 | 36.72383 | 28.79403 | 11 ft | 13 kts | 15° |
| 2026-04-22 13:15 | 36.72486 | 28.79438 | 11 ft | 17 kts | 15° |
| 2026-04-22 13:16 | 36.72597 | 28.79475 | 11 ft | 13 kts | 15° |
| 2026-04-22 13:16 | 36.72644 | 28.79552 | 11 ft | 12 kts | 99° |
| 2026-04-22 13:16 | 36.72620 | 28.79646 | 11 ft | 8 kts | 108° |
| 2026-04-22 13:16 | 36.72592 | 28.79684 | 11 ft | 6 kts | 177° |
| 2026-04-22 13:17 | 36.72573 | 28.79679 | 11 ft | 0 kts | 194° |
| 2026-04-22 13:17 | 36.72525 | 28.79663 | 11 ft | 28 kts | 195° |
| 2026-04-22 13:17 | 36.72108 | 28.79521 | 11 ft | 95 kts | 195° |
| 2026-04-22 13:18 | 36.71283 | 28.79241 | 12 ft | 150 kts | 195° |
| 2026-04-22 13:18 | 36.70186 | 28.78860 | 435 ft | 162 kts | 196° |
| 2026-04-22 13:18 | 36.69111 | 28.78498 | 1270 ft | 161 kts | 195° |
| 2026-04-22 13:18 | 36.68001 | 28.78088 | 1818 ft | 173 kts | 195° |
| 2026-04-22 13:19 | 36.66779 | 28.77675 | 2248 ft | 190 kts | 194° |
| 2026-04-22 13:19 | 36.65469 | 28.77232 | 2723 ft | 205 kts | 194° |
| 2026-04-22 13:19 | 36.64016 | 28.76726 | 2945 ft | 227 kts | 201° |
| 2026-04-22 13:19 | 36.62783 | 28.75473 | 3328 ft | 242 kts | 239° |
| 2026-04-22 13:20 | 36.62421 | 28.73370 | 3687 ft | 260 kts | 278° |
| 2026-04-22 13:20 | 36.62917 | 28.71192 | 4448 ft | 263 kts | 287° |
| 2026-04-22 13:20 | 36.63465 | 28.69013 | 5267 ft | 264 kts | 286° |
| 2026-04-22 13:20 | 36.63982 | 28.66830 | 6111 ft | 263 kts | 285° |
| 2026-04-22 13:21 | 36.64480 | 28.64633 | 6866 ft | 264 kts | 284° |
| 2026-04-22 13:21 | 36.64974 | 28.62414 | 7580 ft | 267 kts | 284° |
| 2026-04-22 13:21 | 36.65640 | 28.60245 | 8266 ft | 273 kts | 303° |
| 2026-04-22 13:21 | 36.66950 | 28.58523 | 9050 ft | 275 kts | 317° |
| 2026-04-22 13:22 | 36.68453 | 28.57026 | 9794 ft | 279 kts | 319° |
| 2026-04-22 13:22 | 36.69998 | 28.55533 | 10328 ft | 287 kts | 319° |
| 2026-04-22 13:22 | 36.71610 | 28.53953 | 10488 ft | 309 kts | 319° |
| 2026-04-22 13:22 | 36.73349 | 28.52236 | 10667 ft | 329 kts | 319° |
| 2026-04-22 13:23 | 36.75172 | 28.50425 | 11099 ft | 339 kts | 319° |
| 2026-04-22 13:23 | 36.77026 | 28.48583 | 11750 ft | 342 kts | 320° |
| 2026-04-22 13:23 | 36.79113 | 28.47136 | 12445 ft | 349 kts | 338° |
| 2026-04-22 13:23 | 36.81459 | 28.46293 | 13181 ft | 351 kts | 341° |
| 2026-04-22 13:24 | 36.83823 | 28.45476 | 13854 ft | 354 kts | 340° |
| 2026-04-22 13:24 | 36.86210 | 28.44640 | 14455 ft | 357 kts | 340° |
| 2026-04-22 13:24 | 36.88604 | 28.43789 | 15081 ft | 358 kts | 340° |
| 2026-04-22 13:24 | 36.91009 | 28.42924 | 15664 ft | 361 kts | 340° |
| 2026-04-22 13:25 | 36.93429 | 28.42045 | 16263 ft | 363 kts | 339° |
| 2026-04-22 13:25 | 36.95861 | 28.41159 | 16884 ft | 364 kts | 339° |
| 2026-04-22 13:25 | 36.98307 | 28.40268 | 17441 ft | 368 kts | 339° |
| 2026-04-22 13:25 | 37.00777 | 28.39365 | 17972 ft | 371 kts | 339° |
| 2026-04-22 13:26 | 37.03268 | 28.38463 | 18532 ft | 374 kts | 339° |
| 2026-04-22 13:26 | 37.05774 | 28.37561 | 19037 ft | 376 kts | 339° |
| 2026-04-22 13:26 | 37.08207 | 28.36386 | 19417 ft | 375 kts | 324° |
| 2026-04-22 13:26 | 37.10234 | 28.34383 | 19960 ft | 370 kts | 315° |
| 2026-04-22 13:27 | 37.12167 | 28.32204 | 20228 ft | 379 kts | 315° |
| 2026-04-22 13:27 | 37.14158 | 28.29983 | 20493 ft | 387 kts | 315° |
| 2026-04-22 13:27 | 37.16188 | 28.27749 | 20973 ft | 388 kts | 316° |
| 2026-04-22 13:27 | 37.18241 | 28.25537 | 21497 ft | 389 kts | 316° |
| 2026-04-22 13:28 | 37.20305 | 28.23330 | 21939 ft | 391 kts | 316° |
| 2026-04-22 13:28 | 37.22374 | 28.21119 | 22368 ft | 392 kts | 316° |
| 2026-04-22 13:28 | 37.24456 | 28.18888 | 22735 ft | 395 kts | 316° |
| 2026-04-22 13:28 | 37.26554 | 28.16636 | 23142 ft | 398 kts | 316° |
| 2026-04-22 13:29 | 37.28658 | 28.14371 | 23576 ft | 400 kts | 316° |
| 2026-04-22 13:29 | 37.30775 | 28.12090 | 23922 ft | 402 kts | 316° |
| 2026-04-22 13:29 | 37.32890 | 28.09791 | 24265 ft | 403 kts | 316° |